Time;durP1;ratioP1;P1;durP2;ratioP2;P2;SDS_P1;SDS_P2;PMS_P1;PMS_P2;Temp;Humidity;BMP_temperature;BMP_pressure;BME280_temperature;BME280_humidity;BME280_pressure;Samples;Min_cycle;Max_cycle;Signal;HPM_P1;HPM_P2
2023/04/10 00:01:37;;;;;;;;;;;;;;;;;;5039853;28;1247;-69
2023/04/10 00:04:03;;;;;;;;;;;;;;;;;;5039491;28;1422;-69
2023/04/10 00:06:28;;;;;;;;;;;;;;;;;;5055506;28;1239;-69
2023/04/10 00:08:53;;;;;;;;;;;;;;;;;;5055831;28;1301;-69
2023/04/10 00:11:19;;;;;;;;;;;;;;;;;;5055883;28;1894;-69
2023/04/10 00:13:44;;;;;;;;;;;;;;;;;;5072640;28;1367;-69
2023/04/10 00:16:10;;;;;;;;;;;;;;;;;;5073188;28;1373;-69
2023/04/10 00:18:35;;;;;;;;;;;;;;;;;;5055915;28;1330;-69
2023/04/10 00:21:02;;;;;;;;;;;;;;;;;;5074548;28;817;-69
2023/04/10 00:23:27;;;;;;;;;;;;;;;;;;5074786;28;828;-69
2023/04/10 00:25:52;;;;;;;;;;;;;;;;;;5056352;28;754;-69
2023/04/10 00:28:18;;;;;;;;;;;;;;;;;;5057076;28;833;-69
2023/04/10 00:30:43;;;;;;;;;;;;;;;;;;5073220;28;1906;-69
2023/04/10 00:33:09;;;;;;;;;;;;;;;;;;5074644;28;865;-69
2023/04/10 00:35:34;;;;;;;;;;;;;;;;;;5056384;28;851;-69
2023/04/10 00:37:59;;;;;;;;;;;;;;;;;;5072829;28;894;-69
2023/04/10 00:40:25;;;;;;;;;;;;;;;;;;5073323;28;833;-69
2023/04/10 00:42:50;;;;;;;;;;;;;;;;;;5038659;28;768;-69
2023/04/10 00:45:15;;;;;;;;;;;;;;;;;;5055221;28;1290;-69
2023/04/10 00:47:41;;;;;;;;;;;;;;;;;;5038785;28;1362;-69
2023/04/10 00:50:06;;;;;;;;;;;;;;;;;;5055215;28;1969;-68
2023/04/10 00:52:32;;;;;;;;;;;;;;;;;;5054941;28;1361;-69
2023/04/10 00:54:57;;;;;;;;;;;;;;;;;;5038202;28;907;-68
2023/04/10 00:57:23;;;;;;;;;;;;;;;;;;5072780;28;804;-69
2023/04/10 00:59:50;;;;;;;;;;;;;;;;;;5073073;28;939;-68
2023/04/10 01:02:16;;;;;;;;;;;;;;;;;;5055797;28;1037;-69
2023/04/10 01:04:41;;;;;;;;;;;;;;;;;;5072453;28;750;-68
2023/04/10 01:07:17;;;;;;;;;;;;;;;;;;5054648;28;1156;-68
2023/04/10 01:09:54;;;;;;;;;;;;;;;;;;5072291;28;951;-68
2023/04/10 01:12:22;;;;;;;;;;;;;;;;;;5072571;28;1893;-69
2023/04/10 01:14:52;;;;;;;;;;;;;;;;;;5065991;28;1113;-69
2023/04/10 01:17:26;;;;;;;;;;;;;;;;;;5060331;28;1209;-69
2023/04/10 01:20:03;;;;;;;;;;;;;;;;;;5076947;28;1242;-69
2023/04/10 01:22:36;;;;;;;;;;;;;;;;;;5074548;28;1417;-70
2023/04/10 01:25:20;;;;;;;;;;;;;;;;;;5092420;28;837;-70
2023/04/10 01:27:59;;;;;;;;;;;;;;;;;;5074046;28;1085;-69
2023/04/10 01:30:25;;;;;;;;;;;;;;;;;;5092361;28;1902;-70
2023/04/10 01:32:52;;;;;;;;;;;;;;;;;;5092675;28;891;-69
2023/04/10 01:35:18;;;;;;;;;;;;;;;;;;5074673;28;1211;-70
2023/04/10 01:37:46;;;;;;;;;;;;;;;;;;5092022;28;868;-69
2023/04/10 01:40:14;;;;;;;;;;;;;;;;;;5090710;28;1219;-70
2023/04/10 01:42:52;;;;;;;;;;;;;;;;;;5090664;28;824;-70
2023/04/10 01:45:22;;;;;;;;;;;;;;;;;;5074321;28;1267;-70
2023/04/10 01:47:48;;;;;;;;;;;;;;;;;;5074429;28;1349;-69
2023/04/10 01:50:14;;;;;;;;;;;;;;;;;;5074053;28;1960;-69
2023/04/10 01:52:40;;;;;;;;;;;;;;;;;;5092342;28;840;-69
2023/04/10 01:55:07;;;;;;;;;;;;;;;;;;5092518;28;1065;-70
2023/04/10 01:57:34;;;;;;;;;;;;;;;;;;5074055;28;1302;-69
2023/04/10 02:00:00;;;;;;;;;;;;;;;;;;5092959;28;868;-69
2023/04/10 02:02:29;;;;;;;;;;;;;;;;;;5092791;28;899;-69
2023/04/10 02:04:55;;;;;;;;;;;;;;;;;;5074562;28;829;-70
2023/04/10 02:07:38;;;;;;;;;;;;;;;;;;5091791;28;801;-69
2023/04/10 02:10:10;;;;;;;;;;;;;;;;;;5074761;28;1968;-70
2023/04/10 02:12:37;;;;;;;;;;;;;;;;;;5075131;28;1243;-70
2023/04/10 02:15:05;;;;;;;;;;;;;;;;;;5074771;28;1206;-70
2023/04/10 02:17:31;;;;;;;;;;;;;;;;;;5088824;28;1266;-70
2023/04/10 02:19:57;;;;;;;;;;;;;;;;;;5056174;28;1333;-69
2023/04/10 02:22:24;;;;;;;;;;;;;;;;;;5040421;28;1509;-69
2023/04/10 02:24:50;;;;;;;;;;;;;;;;;;5052102;28;1207;-70
2023/04/10 02:27:15;;;;;;;;;;;;;;;;;;5054236;28;1253;-68
2023/04/10 02:29:40;;;;;;;;;;;;;;;;;;5054598;28;1369;-68
2023/04/10 02:32:06;;;;;;;;;;;;;;;;;;5037363;28;1914;-68
2023/04/10 02:34:31;;;;;;;;;;;;;;;;;;5054280;28;1188;-68
2023/04/10 02:36:56;;;;;;;;;;;;;;;;;;5054035;28;1236;-69
2023/04/10 02:39:22;;;;;;;;;;;;;;;;;;5071866;28;750;-68
2023/04/10 02:41:47;;;;;;;;;;;;;;;;;;5053948;28;853;-69
2023/04/10 02:44:12;;;;;;;;;;;;;;;;;;5053482;28;821;-69
2023/04/10 02:46:38;;;;;;;;;;;;;;;;;;5049593;28;1232;-69
2023/04/10 02:49:03;;;;;;;;;;;;;;;;;;5045207;28;1239;-69
2023/04/10 02:51:28;;;;;;;;;;;;;;;;;;5034306;28;1894;-69
2023/04/10 02:53:54;;;;;;;;;;;;;;;;;;5035543;28;1256;-69
2023/04/10 02:56:19;;;;;;;;;;;;;;;;;;5053996;28;1307;-68
2023/04/10 02:58:46;;;;;;;;;;;;;;;;;;5056777;28;755;-69
2023/04/10 03:01:12;;;;;;;;;;;;;;;;;;5057320;28;1521;-69
2023/04/10 03:03:37;;;;;;;;;;;;;;;;;;5040731;28;875;-69
2023/04/10 03:06:03;;;;;;;;;;;;;;;;;;5058202;28;831;-69
2023/04/10 03:08:29;;;;;;;;;;;;;;;;;;5075247;28;912;-70
2023/04/10 03:10:54;;;;;;;;;;;;;;;;;;5056645;28;1875;-69
2023/04/10 03:13:20;;;;;;;;;;;;;;;;;;5056559;28;699;-70
2023/04/10 03:15:45;;;;;;;;;;;;;;;;;;5074552;28;825;-70
2023/04/10 03:18:11;;;;;;;;;;;;;;;;;;5056457;28;1493;-69
2023/04/10 03:20:37;;;;;;;;;;;;;;;;;;5056665;28;837;-69
2023/04/10 03:23:06;;;;;;;;;;;;;;;;;;5074301;28;1081;-69
2023/04/10 03:25:35;;;;;;;;;;;;;;;;;;5074543;28;900;-69
2023/04/10 03:28:00;;;;;;;;;;;;;;;;;;5074278;28;840;-69
2023/04/10 03:30:26;;;;;;;;;;;;;;;;;;5074783;28;1911;-69
2023/04/10 03:32:51;;;;;;;;;;;;;;;;;;5056493;28;833;-68
2023/04/10 03:35:16;;;;;;;;;;;;;;;;;;5057157;28;896;-68
2023/04/10 03:37:42;;;;;;;;;;;;;;;;;;5057076;28;892;-69
2023/04/10 03:40:08;;;;;;;;;;;;;;;;;;5040739;28;1374;-69
2023/04/10 03:42:34;;;;;;;;;;;;;;;;;;5075329;28;915;-68
2023/04/10 03:45:03;;;;;;;;;;;;;;;;;;5075213;28;984;-68
2023/04/10 03:47:28;;;;;;;;;;;;;;;;;;5057956;28;1338;-68
2023/04/10 03:49:54;;;;;;;;;;;;;;;;;;5056814;28;1105;-68
2023/04/10 03:52:19;;;;;;;;;;;;;;;;;;5075477;28;1870;-69
2023/04/10 03:54:44;;;;;;;;;;;;;;;;;;5074672;28;973;-70
2023/04/10 03:57:10;;;;;;;;;;;;;;;;;;5056834;28;841;-69
2023/04/10 03:59:35;;;;;;;;;;;;;;;;;;5074601;28;904;-69
2023/04/10 04:02:00;;;;;;;;;;;;;;;;;;5055476;28;1283;-68
2023/04/10 04:04:26;;;;;;;;;;;;;;;;;;5056178;28;1139;-69
2023/04/10 04:06:52;;;;;;;;;;;;;;;;;;5073734;28;923;-68
2023/04/10 04:09:17;;;;;;;;;;;;;;;;;;5056015;28;864;-69
2023/04/10 04:11:43;;;;;;;;;;;;;;;;;;5073241;28;1898;-69
2023/04/10 04:14:08;;;;;;;;;;;;;;;;;;5039184;28;1301;-69
2023/04/10 04:16:33;;;;;;;;;;;;;;;;;;5073819;28;824;-70
2023/04/10 04:18:59;;;;;;;;;;;;;;;;;;5051555;28;1261;-69
2023/04/10 04:21:24;;;;;;;;;;;;;;;;;;5076539;28;1059;-69
2023/04/10 04:23:49;;;;;;;;;;;;;;;;;;5058650;28;1239;-69
2023/04/10 04:26:15;;;;;;;;;;;;;;;;;;5093439;28;899;-69
2023/04/10 04:28:40;;;;;;;;;;;;;;;;;;5075898;28;904;-69
2023/04/10 04:31:05;;;;;;;;;;;;;;;;;;5093520;28;1915;-67
2023/04/10 04:33:31;;;;;;;;;;;;;;;;;;5093676;28;837;-67
2023/04/10 04:35:56;;;;;;;;;;;;;;;;;;5093239;28;896;-67
2023/04/10 04:38:22;;;;;;;;;;;;;;;;;;5058399;28;1374;-67
2023/04/10 04:40:47;;;;;;;;;;;;;;;;;;5058363;28;1537;-67
2023/04/10 04:43:12;;;;;;;;;;;;;;;;;;5075288;28;1050;-67
2023/04/10 04:45:38;;;;;;;;;;;;;;;;;;5058699;28;1228;-67
2023/04/10 04:48:03;;;;;;;;;;;;;;;;;;5075043;28;1271;-67
2023/04/10 04:50:28;;;;;;;;;;;;;;;;;;5075240;28;1894;-67
2023/04/10 04:52:53;;;;;;;;;;;;;;;;;;5074548;28;1187;-67
2023/04/10 04:55:19;;;;;;;;;;;;;;;;;;5075262;28;1277;-68
2023/04/10 04:57:44;;;;;;;;;;;;;;;;;;5074892;28;912;-67
2023/04/10 05:00:09;;;;;;;;;;;;;;;;;;5092048;28;1199;-68
2023/04/10 05:02:35;;;;;;;;;;;;;;;;;;5090412;28;1211;-68
2023/04/10 05:05:00;;;;;;;;;;;;;;;;;;5072487;28;1188;-68
2023/04/10 05:07:26;;;;;;;;;;;;;;;;;;5091154;28;1037;-67
2023/04/10 05:09:51;;;;;;;;;;;;;;;;;;5057988;28;1244;-67
2023/04/10 05:12:16;;;;;;;;;;;;;;;;;;5074592;28;1901;-68
2023/04/10 05:14:41;;;;;;;;;;;;;;;;;;5093812;28;892;-68
2023/04/10 05:17:07;;;;;;;;;;;;;;;;;;5093187;28;955;-68
2023/04/10 05:19:32;;;;;;;;;;;;;;;;;;5075165;28;1272;-68
2023/04/10 05:21:57;;;;;;;;;;;;;;;;;;5072939;28;805;-67
2023/04/10 05:24:22;;;;;;;;;;;;;;;;;;5055532;28;1362;-67
2023/04/10 05:26:51;;;;;;;;;;;;;;;;;;5055780;28;1144;-68
2023/04/10 05:29:16;;;;;;;;;;;;;;;;;;5072697;28;893;-67
2023/04/10 05:31:41;;;;;;;;;;;;;;;;;;5072877;28;1930;-68
2023/04/10 05:34:07;;;;;;;;;;;;;;;;;;5054206;28;655;-68
2023/04/10 05:36:32;;;;;;;;;;;;;;;;;;5055345;28;872;-67
2023/04/10 05:38:57;;;;;;;;;;;;;;;;;;5072897;28;953;-68
2023/04/10 05:41:22;;;;;;;;;;;;;;;;;;5054749;28;908;-68
2023/04/10 05:43:48;;;;;;;;;;;;;;;;;;5038927;28;1232;-69
2023/04/10 05:46:14;;;;;;;;;;;;;;;;;;5072291;28;923;-69
2023/04/10 05:48:39;;;;;;;;;;;;;;;;;;5072228;28;821;-69
2023/04/10 05:51:04;;;;;;;;;;;;;;;;;;5071706;28;1964;-69
2023/04/10 05:53:30;;;;;;;;;;;;;;;;;;5072131;28;852;-69
2023/04/10 05:55:56;;;;;;;;;;;;;;;;;;5037092;28;1153;-68
2023/04/10 05:58:21;;;;;;;;;;;;;;;;;;5037346;28;1207;-69
2023/04/10 06:00:46;;;;;;;;;;;;;;;;;;5070735;28;1255;-69
2023/04/10 06:03:11;;;;;;;;;;;;;;;;;;5070404;28;923;-68
2023/04/10 06:05:37;;;;;;;;;;;;;;;;;;5054177;28;1457;-69
2023/04/10 06:08:02;;;;;;;;;;;;;;;;;;5053595;28;844;-69
2023/04/10 06:10:30;;;;;;;;;;;;;;;;;;5054306;28;1906;-68
2023/04/10 06:12:56;;;;;;;;;;;;;;;;;;5072131;28;797;-69
2023/04/10 06:15:21;;;;;;;;;;;;;;;;;;5053881;28;1310;-67
2023/04/10 06:17:46;;;;;;;;;;;;;;;;;;5071969;28;1065;-67
2023/04/10 06:20:12;;;;;;;;;;;;;;;;;;5053966;28;825;-67
2023/04/10 06:22:37;;;;;;;;;;;;;;;;;;5073299;28;821;-67
2023/04/10 06:25:04;;;;;;;;;;;;;;;;;;5057515;28;1291;-67
2023/04/10 06:27:29;;;;;;;;;;;;;;;;;;5075717;28;899;-67
2023/04/10 06:29:55;;;;;;;;;;;;;;;;;;5075693;28;872;-67
2023/04/10 06:32:20;;;;;;;;;;;;;;;;;;5056936;28;1910;-68
2023/04/10 06:34:46;;;;;;;;;;;;;;;;;;5075508;28;856;-67
2023/04/10 06:37:11;;;;;;;;;;;;;;;;;;5075145;28;895;-67
2023/04/10 06:39:38;;;;;;;;;;;;;;;;;;5057327;28;1470;-68
2023/04/10 06:42:03;;;;;;;;;;;;;;;;;;5075165;28;872;-67
2023/04/10 06:44:28;;;;;;;;;;;;;;;;;;5057607;28;1325;-67
2023/04/10 06:46:54;;;;;;;;;;;;;;;;;;5075610;28;880;-68
2023/04/10 06:49:19;;;;;;;;;;;;;;;;;;5057175;28;1443;-67
2023/04/10 06:51:47;;;;;;;;;;;;;;;;;;5075455;28;1882;-68
2023/04/10 06:54:12;;;;;;;;;;;;;;;;;;5058073;28;1097;-67
2023/04/10 06:56:38;;;;;;;;;;;;;;;;;;5041727;28;1263;-67
2023/04/10 06:59:03;;;;;;;;;;;;;;;;;;5058838;28;885;-67
2023/04/10 07:01:28;;;;;;;;;;;;;;;;;;5038418;28;1244;-67
2023/04/10 07:03:54;;;;;;;;;;;;;;;;;;5038153;28;841;-70
2023/04/10 07:06:20;;;;;;;;;;;;;;;;;;5038184;28;829;-70
2023/04/10 07:08:45;;;;;;;;;;;;;;;;;;5038327;28;1143;-70
2023/04/10 07:11:11;;;;;;;;;;;;;;;;;;5038269;28;1946;-70
2023/04/10 07:13:37;;;;;;;;;;;;;;;;;;5056715;28;904;-70
2023/04/10 07:16:05;;;;;;;;;;;;;;;;;;5057407;28;992;-69
2023/04/10 07:18:30;;;;;;;;;;;;;;;;;;5049044;28;1339;-70
2023/04/10 07:20:56;;;;;;;;;;;;;;;;;;5059264;28;1266;-70
2023/04/10 07:23:21;;;;;;;;;;;;;;;;;;5056553;28;1259;-70
2023/04/10 07:25:47;;;;;;;;;;;;;;;;;;5058409;28;1212;-69
2023/04/10 07:28:12;;;;;;;;;;;;;;;;;;5058276;28;794;-70
2023/04/10 07:30:38;;;;;;;;;;;;;;;;;;5058610;28;1960;-70
2023/04/10 07:33:03;;;;;;;;;;;;;;;;;;5058135;28;1244;-70
2023/04/10 07:35:28;;;;;;;;;;;;;;;;;;5058073;28;924;-70
2023/04/10 07:37:57;;;;;;;;;;;;;;;;;;5058179;28;908;-70
2023/04/10 07:40:22;;;;;;;;;;;;;;;;;;5075769;28;829;-70
2023/04/10 07:42:48;;;;;;;;;;;;;;;;;;5075760;28;884;-68
2023/04/10 07:45:13;;;;;;;;;;;;;;;;;;5056539;28;1199;-67
2023/04/10 07:47:38;;;;;;;;;;;;;;;;;;5075029;28;873;-68
2023/04/10 07:50:04;;;;;;;;;;;;;;;;;;5074170;28;781;-67
2023/04/10 07:52:29;;;;;;;;;;;;;;;;;;5074292;28;1906;-67
2023/04/10 07:54:55;;;;;;;;;;;;;;;;;;5056342;28;1076;-67
2023/04/10 07:57:20;;;;;;;;;;;;;;;;;;5055922;28;1365;-67
2023/04/10 07:59:45;;;;;;;;;;;;;;;;;;5056532;28;1317;-67
2023/04/10 08:02:11;;;;;;;;;;;;;;;;;;5056072;28;861;-67
2023/04/10 08:04:36;;;;;;;;;;;;;;;;;;5056511;28;1339;-67
2023/04/10 08:07:01;;;;;;;;;;;;;;;;;;5074176;28;917;-67
2023/04/10 08:09:27;;;;;;;;;;;;;;;;;;5055401;28;1287;-67
2023/04/10 08:11:52;;;;;;;;;;;;;;;;;;5055828;28;1902;-67
2023/04/10 08:14:17;;;;;;;;;;;;;;;;;;5056896;28;947;-67
2023/04/10 08:16:43;;;;;;;;;;;;;;;;;;5056558;28;864;-67
2023/04/10 08:19:08;;;;;;;;;;;;;;;;;;5052374;28;1149;-67
2023/04/10 08:21:34;;;;;;;;;;;;;;;;;;5052807;28;1345;-67
2023/04/10 08:24:01;;;;;;;;;;;;;;;;;;5036131;28;1428;-67
2023/04/10 08:26:27;;;;;;;;;;;;;;;;;;5052696;28;873;-67
2023/04/10 08:28:53;;;;;;;;;;;;;;;;;;5052265;28;1057;-67
2023/04/10 08:31:19;;;;;;;;;;;;;;;;;;5050102;28;1906;-68
2023/04/10 08:33:44;;;;;;;;;;;;;;;;;;5052157;28;872;-68
2023/04/10 08:36:11;;;;;;;;;;;;;;;;;;5051633;28;825;-67
2023/04/10 08:38:37;;;;;;;;;;;;;;;;;;5051959;28;864;-67
2023/04/10 08:41:02;;;;;;;;;;;;;;;;;;5050947;28;872;-67
2023/04/10 08:43:28;;;;;;;;;;;;;;;;;;5049731;28;1270;-66
2023/04/10 08:45:55;;;;;;;;;;;;;;;;;;5049809;28;1266;-67
2023/04/10 08:48:20;;;;;;;;;;;;;;;;;;5052323;28;857;-67
2023/04/10 08:50:46;;;;;;;;;;;;;;;;;;5051439;28;1894;-70
2023/04/10 08:53:12;;;;;;;;;;;;;;;;;;5051231;28;1269;-70
2023/04/10 08:55:39;;;;;;;;;;;;;;;;;;5051585;28;1096;-71
2023/04/10 08:58:04;;;;;;;;;;;;;;;;;;5051429;28;951;-70
2023/04/10 09:00:33;;;;;;;;;;;;;;;;;;5051674;28;881;-71
2023/04/10 09:02:58;;;;;;;;;;;;;;;;;;5051502;28;1109;-70
2023/04/10 09:05:25;;;;;;;;;;;;;;;;;;5052727;28;801;-70
2023/04/10 09:07:51;;;;;;;;;;;;;;;;;;5051573;28;1155;-71
2023/04/10 09:10:16;;;;;;;;;;;;;;;;;;5052814;28;1890;-70
2023/04/10 09:12:42;;;;;;;;;;;;;;;;;;5051855;28;1120;-71
2023/04/10 09:15:08;;;;;;;;;;;;;;;;;;5052902;28;860;-71
2023/04/10 09:17:33;;;;;;;;;;;;;;;;;;5051571;28;1204;-71
2023/04/10 09:19:58;;;;;;;;;;;;;;;;;;5050726;28;1256;-71
2023/04/10 09:22:33;;;;;;;;;;;;;;;;;;5034084;28;1223;-71
2023/04/10 09:24:59;;;;;;;;;;;;;;;;;;5051090;28;1389;-70
2023/04/10 09:27:33;;;;;;;;;;;;;;;;;;5050753;28;1353;-71
2023/04/10 09:29:59;;;;;;;;;;;;;;;;;;5051168;28;1319;-71
2023/04/10 09:32:51;;;;;;;;;;;;;;;;;;5050356;28;1979;-71
2023/04/10 09:35:16;;;;;;;;;;;;;;;;;;5048632;28;1265;-70
2023/04/10 09:37:43;;;;;;;;;;;;;;;;;;5033489;28;1310;-70
2023/04/10 09:40:19;;;;;;;;;;;;;;;;;;5050897;28;1346;-70
2023/04/10 09:42:44;;;;;;;;;;;;;;;;;;5052769;28;869;-71
2023/04/10 09:45:10;;;;;;;;;;;;;;;;;;5053058;28;841;-71
2023/04/10 09:47:36;;;;;;;;;;;;;;;;;;5033941;28;1019;-71
2023/04/10 09:50:02;;;;;;;;;;;;;;;;;;5051666;28;1495;-71
2023/04/10 09:52:27;;;;;;;;;;;;;;;;;;5051069;28;1898;-70
2023/04/10 09:54:54;;;;;;;;;;;;;;;;;;5050648;28;1113;-70
2023/04/10 09:57:21;;;;;;;;;;;;;;;;;;5035728;28;1272;-71
2023/04/10 09:59:50;;;;;;;;;;;;;;;;;;5059396;28;848;-71
2023/04/10 10:02:16;;;;;;;;;;;;;;;;;;5059262;28;836;-71
2023/04/10 10:04:43;;;;;;;;;;;;;;;;;;5059279;28;832;-71
2023/04/10 10:07:08;;;;;;;;;;;;;;;;;;5059354;28;785;-71
2023/04/10 10:09:34;;;;;;;;;;;;;;;;;;5057654;28;1223;-71
2023/04/10 10:12:00;;;;;;;;;;;;;;;;;;5057414;28;2265;-71
2023/04/10 10:14:27;;;;;;;;;;;;;;;;;;5056599;28;852;-71
2023/04/10 10:16:55;;;;;;;;;;;;;;;;;;5058758;28;872;-71
2023/04/10 10:19:26;;;;;;;;;;;;;;;;;;5058316;28;1279;-71
2023/04/10 10:21:51;;;;;;;;;;;;;;;;;;5058332;28;856;-71
2023/04/10 10:24:18;;;;;;;;;;;;;;;;;;5056670;28;1503;-71
2023/04/10 10:26:44;;;;;;;;;;;;;;;;;;5056985;28;1294;-72
2023/04/10 10:29:09;;;;;;;;;;;;;;;;;;5057040;28;1239;-71
2023/04/10 10:31:36;;;;;;;;;;;;;;;;;;5040120;28;1930;-71
2023/04/10 10:34:04;;;;;;;;;;;;;;;;;;5058307;28;884;-71
2023/04/10 10:36:30;;;;;;;;;;;;;;;;;;5056554;28;1231;-72
2023/04/10 10:39:07;;;;;;;;;;;;;;;;;;5058276;28;833;-71
2023/04/10 10:41:55;;;;;;;;;;;;;;;;;;5056821;28;1109;-71
2023/04/10 10:44:36;;;;;;;;;;;;;;;;;;5056230;28;1371;-71
2023/04/10 10:47:16;;;;;;;;;;;;;;;;;;5058289;28;892;-71
2023/04/10 10:49:52;;;;;;;;;;;;;;;;;;5058372;28;892;-71
2023/04/10 10:52:35;;;;;;;;;;;;;;;;;;5057790;28;1930;-71
2023/04/10 10:55:20;;;;;;;;;;;;;;;;;;5057039;28;1315;-71
2023/04/10 10:57:47;;;;;;;;;;;;;;;;;;5058392;28;1114;-71
2023/04/10 11:00:12;;;;;;;;;;;;;;;;;;5058268;28;837;-72
2023/04/10 11:02:38;;;;;;;;;;;;;;;;;;5056582;28;1233;-72
2023/04/10 11:05:03;;;;;;;;;;;;;;;;;;5058072;28;927;-72
2023/04/10 11:07:47;;;;;;;;;;;;;;;;;;5056021;28;1342;-71
2023/04/10 11:10:12;;;;;;;;;;;;;;;;;;5054443;28;924;-70
2023/04/10 11:12:58;;;;;;;;;;;;;;;;;;5055259;28;1898;-71
2023/04/10 11:15:24;;;;;;;;;;;;;;;;;;5053471;28;1366;-70
2023/04/10 11:17:50;;;;;;;;;;;;;;;;;;5037449;28;1232;-70
2023/04/10 11:20:20;;;;;;;;;;;;;;;;;;5094842;28;1262;-71
2023/04/10 11:23:04;;;;;;;;;;;;;;;;;;5095258;28;907;-70
2023/04/10 11:25:47;;;;;;;;;;;;;;;;;;5077565;28;1339;-71
2023/04/10 11:28:31;;;;;;;;;;;;;;;;;;5095908;28;836;-70
2023/04/10 11:31:15;;;;;;;;;;;;;;;;;;5078184;28;1913;-71
2023/04/10 11:33:40;;;;;;;;;;;;;;;;;;5077295;28;1239;-72
2023/04/10 11:36:06;;;;;;;;;;;;;;;;;;5077190;28;1243;-70
2023/04/10 11:38:31;;;;;;;;;;;;;;;;;;5093857;28;911;-71
2023/04/10 11:41:01;;;;;;;;;;;;;;;;;;5094032;28;836;-71
2023/04/10 11:43:27;;;;;;;;;;;;;;;;;;5094328;28;820;-71
2023/04/10 11:45:59;;;;;;;;;;;;;;;;;;5076672;28;1132;-70
2023/04/10 11:48:25;;;;;;;;;;;;;;;;;;5076103;28;1243;-70
2023/04/10 11:50:51;;;;;;;;;;;;;;;;;;5094269;28;1968;-70
2023/04/10 11:53:17;;;;;;;;;;;;;;;;;;5093946;28;895;-71
2023/04/10 11:55:42;;;;;;;;;;;;;;;;;;5076018;28;1223;-70
2023/04/10 11:58:27;;;;;;;;;;;;;;;;;;5076138;28;1235;-71
2023/04/10 12:00:56;;;;;;;;;;;;;;;;;;5075804;28;1452;-70
2023/04/10 12:03:35;;;;;;;;;;;;;;;;;;5094035;28;852;-70
2023/04/10 12:06:01;;;;;;;;;;;;;;;;;;5093909;28;891;-71
2023/04/10 12:08:29;;;;;;;;;;;;;;;;;;5093831;28;896;-71
2023/04/10 12:10:55;;;;;;;;;;;;;;;;;;5093763;28;1945;-71
2023/04/10 12:13:24;;;;;;;;;;;;;;;;;;5075876;28;1444;-70
2023/04/10 12:15:50;;;;;;;;;;;;;;;;;;5075099;28;919;-71
2023/04/10 12:18:15;;;;;;;;;;;;;;;;;;5075413;28;1123;-70
2023/04/10 12:20:40;;;;;;;;;;;;;;;;;;5075313;28;1277;-70
2023/04/10 12:23:06;;;;;;;;;;;;;;;;;;5092527;28;884;-71
2023/04/10 12:25:32;;;;;;;;;;;;;;;;;;5075386;28;1079;-71
2023/04/10 12:27:58;;;;;;;;;;;;;;;;;;5093758;28;820;-70
2023/04/10 12:30:23;;;;;;;;;;;;;;;;;;5075187;28;1497;-71
2023/04/10 12:32:55;;;;;;;;;;;;;;;;;;5075387;28;849;-75
2023/04/10 12:35:36;;;;;;;;;;;;;;;;;;5093507;28;914;-70
2023/04/10 12:38:01;;;;;;;;;;;;;;;;;;5075615;28;859;-71
2023/04/10 12:40:26;;;;;;;;;;;;;;;;;;5075488;28;1316;-71
2023/04/10 12:42:52;;;;;;;;;;;;;;;;;;5075800;28;1367;-70
2023/04/10 12:45:17;;;;;;;;;;;;;;;;;;5093367;28;837;-70
2023/04/10 12:47:45;;;;;;;;;;;;;;;;;;5075284;28;1381;-71
2023/04/10 12:50:12;;;;;;;;;;;;;;;;;;5093937;28;879;-71
2023/04/10 12:52:43;;;;;;;;;;;;;;;;;;5093742;28;1968;-71
2023/04/10 12:55:11;;;;;;;;;;;;;;;;;;5092913;28;926;-71
2023/04/10 12:57:37;;;;;;;;;;;;;;;;;;5093954;28;820;-71
2023/04/10 13:00:08;;;;;;;;;;;;;;;;;;5075480;28;1089;-71
2023/04/10 13:02:33;;;;;;;;;;;;;;;;;;5093208;28;928;-71
2023/04/10 13:04:59;;;;;;;;;;;;;;;;;;5075484;28;1152;-70
2023/04/10 13:07:24;;;;;;;;;;;;;;;;;;5093709;28;903;-71
2023/04/10 13:09:50;;;;;;;;;;;;;;;;;;5075481;28;1281;-70
2023/04/10 13:12:15;;;;;;;;;;;;;;;;;;5093656;28;1971;-70
2023/04/10 13:14:41;;;;;;;;;;;;;;;;;;5093507;28;896;-70
2023/04/10 13:17:06;;;;;;;;;;;;;;;;;;5075625;28;1295;-70
2023/04/10 13:19:32;;;;;;;;;;;;;;;;;;5092359;28;1223;-70
2023/04/10 13:22:00;;;;;;;;;;;;;;;;;;5092142;28;833;-70
2023/04/10 13:24:25;;;;;;;;;;;;;;;;;;5091855;28;793;-70
2023/04/10 13:26:50;;;;;;;;;;;;;;;;;;5093014;28;809;-70
2023/04/10 13:29:15;;;;;;;;;;;;;;;;;;5074677;28;735;-70
2023/04/10 13:31:41;;;;;;;;;;;;;;;;;;5091406;28;1909;-70
2023/04/10 13:34:06;;;;;;;;;;;;;;;;;;5073555;28;1325;-70
2023/04/10 13:36:31;;;;;;;;;;;;;;;;;;5091383;28;1093;-70
2023/04/10 13:38:56;;;;;;;;;;;;;;;;;;5074206;28;1211;-71
2023/04/10 13:41:22;;;;;;;;;;;;;;;;;;5074115;28;1128;-70
2023/04/10 13:43:48;;;;;;;;;;;;;;;;;;5073859;28;1314;-70
2023/04/10 13:46:13;;;;;;;;;;;;;;;;;;5073685;28;1235;-70
2023/04/10 13:48:40;;;;;;;;;;;;;;;;;;5091365;28;974;-70
2023/04/10 13:51:06;;;;;;;;;;;;;;;;;;5074438;28;1906;-70
2023/04/10 13:53:32;;;;;;;;;;;;;;;;;;5092834;28;770;-70
2023/04/10 13:55:57;;;;;;;;;;;;;;;;;;5074289;28;1117;-70
2023/04/10 13:58:27;;;;;;;;;;;;;;;;;;5074536;28;1109;-70
2023/04/10 14:00:52;;;;;;;;;;;;;;;;;;5074557;28;1211;-70
2023/04/10 14:03:18;;;;;;;;;;;;;;;;;;5074323;28;1364;-70
2023/04/10 14:05:44;;;;;;;;;;;;;;;;;;5074505;28;694;-70
2023/04/10 14:08:13;;;;;;;;;;;;;;;;;;5091494;28;983;-70
2023/04/10 14:10:38;;;;;;;;;;;;;;;;;;5074016;28;1906;-70
2023/04/10 14:13:05;;;;;;;;;;;;;;;;;;5092888;28;1061;-70
2023/04/10 14:15:30;;;;;;;;;;;;;;;;;;5091882;28;852;-68
2023/04/10 14:17:55;;;;;;;;;;;;;;;;;;5073859;28;1220;-67
2023/04/10 14:20:21;;;;;;;;;;;;;;;;;;5092081;28;832;-68
2023/04/10 14:22:46;;;;;;;;;;;;;;;;;;5092189;28;836;-68
2023/04/10 14:25:14;;;;;;;;;;;;;;;;;;5091890;28;904;-68
2023/04/10 14:27:40;;;;;;;;;;;;;;;;;;5073843;28;1239;-68
2023/04/10 14:30:05;;;;;;;;;;;;;;;;;;5090650;28;832;-68
2023/04/10 14:32:31;;;;;;;;;;;;;;;;;;5090714;28;1906;-68
2023/04/10 14:34:56;;;;;;;;;;;;;;;;;;5091759;28;903;-68
2023/04/10 14:37:21;;;;;;;;;;;;;;;;;;5092158;28;1041;-68
2023/04/10 14:39:46;;;;;;;;;;;;;;;;;;5074045;28;1341;-68
2023/04/10 14:42:12;;;;;;;;;;;;;;;;;;5073731;28;892;-68
2023/04/10 14:44:38;;;;;;;;;;;;;;;;;;5093427;28;900;-68
2023/04/10 14:47:05;;;;;;;;;;;;;;;;;;5094655;28;956;-68
2023/04/10 14:49:30;;;;;;;;;;;;;;;;;;5077978;28;1160;-68
2023/04/10 14:51:56;;;;;;;;;;;;;;;;;;5077240;28;1957;-68
2023/04/10 14:54:22;;;;;;;;;;;;;;;;;;5094225;28;947;-68
2023/04/10 14:56:48;;;;;;;;;;;;;;;;;;5077517;28;1312;-68
2023/04/10 14:59:14;;;;;;;;;;;;;;;;;;5077417;28;1267;-68
2023/04/10 15:01:39;;;;;;;;;;;;;;;;;;5077846;28;1176;-68
2023/04/10 15:04:04;;;;;;;;;;;;;;;;;;5095234;28;821;-68
2023/04/10 15:06:31;;;;;;;;;;;;;;;;;;5095286;28;746;-68
2023/04/10 15:08:56;;;;;;;;;;;;;;;;;;5094964;28;891;-68
2023/04/10 15:11:22;;;;;;;;;;;;;;;;;;5076555;28;1913;-68
2023/04/10 15:13:47;;;;;;;;;;;;;;;;;;5095605;28;888;-71
2023/04/10 15:16:13;;;;;;;;;;;;;;;;;;5076731;28;1306;-71
2023/04/10 15:18:38;;;;;;;;;;;;;;;;;;5076862;28;1259;-71
2023/04/10 15:21:04;;;;;;;;;;;;;;;;;;5077096;28;1465;-71
2023/04/10 15:23:29;;;;;;;;;;;;;;;;;;5076972;28;1195;-71
2023/04/10 15:25:55;;;;;;;;;;;;;;;;;;5092661;28;1164;-71
2023/04/10 15:28:20;;;;;;;;;;;;;;;;;;5082789;28;1414;-72
2023/04/10 15:30:48;;;;;;;;;;;;;;;;;;5092892;28;1921;-71
2023/04/10 15:33:14;;;;;;;;;;;;;;;;;;5097335;28;1212;-70
2023/04/10 15:35:40;;;;;;;;;;;;;;;;;;5097663;28;1294;-69
2023/04/10 15:38:05;;;;;;;;;;;;;;;;;;5080010;28;757;-69
2023/04/10 15:40:31;;;;;;;;;;;;;;;;;;5080124;28;1337;-69
2023/04/10 15:42:57;;;;;;;;;;;;;;;;;;5080369;28;1317;-69
2023/04/10 15:45:22;;;;;;;;;;;;;;;;;;5097205;28;2015;-69
2023/04/10 15:47:47;;;;;;;;;;;;;;;;;;5096930;28;1107;-69
2023/04/10 15:50:13;;;;;;;;;;;;;;;;;;5097290;28;884;-69
2023/04/10 15:52:38;;;;;;;;;;;;;;;;;;5115840;28;1906;-70
2023/04/10 15:55:04;;;;;;;;;;;;;;;;;;5096532;28;1255;-69
2023/04/10 15:57:29;;;;;;;;;;;;;;;;;;5079989;28;1254;-69
2023/04/10 15:59:57;;;;;;;;;;;;;;;;;;5080014;28;1373;-69
2023/04/10 16:02:22;;;;;;;;;;;;;;;;;;5096635;28;1283;-70
2023/04/10 16:04:48;;;;;;;;;;;;;;;;;;5096072;28;1247;-69
2023/04/10 16:07:13;;;;;;;;;;;;;;;;;;5079261;28;1246;-69
2023/04/10 16:09:38;;;;;;;;;;;;;;;;;;5080217;28;2113;-70
2023/04/10 16:12:04;;;;;;;;;;;;;;;;;;5079911;28;1971;-70
2023/04/10 16:14:29;;;;;;;;;;;;;;;;;;5113978;28;1334;-70
2023/04/10 16:16:54;;;;;;;;;;;;;;;;;;5096658;28;896;-70
2023/04/10 16:19:20;;;;;;;;;;;;;;;;;;5077531;28;1274;-71
2023/04/10 16:21:45;;;;;;;;;;;;;;;;;;5115709;28;962;-70
2023/04/10 16:24:10;;;;;;;;;;;;;;;;;;5097289;28;850;-70
2023/04/10 16:26:35;;;;;;;;;;;;;;;;;;5079580;28;1035;-70
2023/04/10 16:29:01;;;;;;;;;;;;;;;;;;5096840;28;1085;-71
2023/04/10 16:31:26;;;;;;;;;;;;;;;;;;5096884;28;1906;-70
2023/04/10 16:33:52;;;;;;;;;;;;;;;;;;5114373;28;1215;-70
2023/04/10 16:36:17;;;;;;;;;;;;;;;;;;5096756;28;1101;-71
2023/04/10 16:38:43;;;;;;;;;;;;;;;;;;5079989;28;1251;-71
2023/04/10 16:41:09;;;;;;;;;;;;;;;;;;5115153;28;880;-70
2023/04/10 16:43:34;;;;;;;;;;;;;;;;;;5079702;28;817;-71
2023/04/10 16:46:00;;;;;;;;;;;;;;;;;;5096223;28;860;-70
2023/04/10 16:48:25;;;;;;;;;;;;;;;;;;5095971;28;1234;-70
2023/04/10 16:50:51;;;;;;;;;;;;;;;;;;5096133;28;1902;-71
2023/04/10 16:53:16;;;;;;;;;;;;;;;;;;5078331;28;1260;-71
2023/04/10 16:55:43;;;;;;;;;;;;;;;;;;5095537;28;1321;-71
2023/04/10 16:58:08;;;;;;;;;;;;;;;;;;5096025;28;872;-69
2023/04/10 17:00:33;;;;;;;;;;;;;;;;;;5114474;28;891;-69
2023/04/10 17:02:59;;;;;;;;;;;;;;;;;;5115104;28;852;-69
2023/04/10 17:05:24;;;;;;;;;;;;;;;;;;5115386;28;832;-69
2023/04/10 17:07:49;;;;;;;;;;;;;;;;;;5094987;28;1228;-69